createdAt,value
2023-02-22T00:04:51.100Z,7.40
2023-02-22T00:07:21.398Z,7.53
2023-02-22T00:09:49.504Z,9.00
2023-02-22T00:12:17.441Z,7.40
2023-02-22T00:14:45.332Z,8.77
2023-02-22T00:17:13.558Z,8.10
2023-02-22T00:19:41.458Z,8.40
2023-02-22T00:22:10.785Z,8.40
2023-02-22T00:24:38.697Z,9.13
2023-02-22T00:27:06.660Z,8.40
2023-02-22T00:29:35.439Z,8.97
2023-02-22T00:32:03.509Z,8.30
2023-02-22T00:34:31.827Z,8.17
2023-02-22T00:37:02.862Z,8.40
2023-02-22T00:39:32.294Z,7.70
2023-02-22T00:42:00.364Z,8.80
2023-02-22T00:44:28.566Z,7.97
2023-02-22T00:46:56.516Z,7.80
2023-02-22T00:49:24.439Z,8.63
2023-02-22T00:51:52.347Z,7.50
2023-02-22T00:54:20.725Z,7.30
2023-02-22T00:56:50.591Z,6.90
2023-02-22T00:59:18.547Z,7.80
2023-02-22T01:01:46.605Z,8.53
2023-02-22T01:04:14.810Z,5.93
2023-02-22T01:06:43.143Z,7.30
2023-02-22T01:09:11.140Z,7.33
2023-02-22T01:11:39.064Z,8.03
2023-02-22T01:14:09.756Z,7.30
2023-02-22T01:16:37.801Z,6.33
2023-02-22T01:19:06.281Z,7.90
2023-02-22T01:21:34.201Z,5.73
2023-02-22T01:24:02.224Z,6.73
2023-02-22T01:26:30.402Z,6.20
2023-02-22T01:28:58.329Z,6.13
2023-02-22T01:31:27.800Z,4.73
2023-02-22T01:33:55.739Z,5.40
2023-02-22T01:36:23.673Z,6.90
2023-02-22T01:38:51.601Z,6.60
2023-02-22T01:41:19.522Z,6.00
2023-02-22T01:43:47.406Z,6.03
2023-02-22T01:46:22.950Z,6.33
2023-02-22T01:48:54.769Z,4.87
2023-02-22T01:51:24.937Z,4.00
2023-02-22T01:53:55.966Z,4.90
2023-02-22T01:56:25.688Z,4.90
2023-02-22T01:58:55.500Z,6.20
2023-02-22T02:01:24.723Z,6.10
2023-02-22T02:03:58.664Z,6.00
2023-02-22T02:06:27.636Z,5.17
2023-02-22T02:09:01.153Z,4.80
2023-02-22T02:11:29.792Z,4.40
2023-02-22T02:13:59.316Z,4.17
2023-02-22T02:16:35.699Z,5.30
2023-02-22T02:19:05.426Z,5.63
2023-02-22T02:22:12.081Z,4.20
2023-02-22T02:24:57.518Z,4.40
2023-02-22T02:27:27.144Z,4.20
2023-02-22T02:30:36.720Z,4.63
2023-02-22T02:33:08.016Z,5.10
2023-02-22T02:35:50.408Z,4.40
2023-02-22T02:38:26.335Z,3.97
2023-02-22T02:41:00.468Z,4.97
2023-02-22T02:43:32.657Z,4.60
2023-02-22T02:46:05.551Z,3.77
2023-02-22T02:48:36.350Z,4.47
2023-02-22T02:51:06.937Z,4.60
2023-02-22T02:53:37.092Z,4.53
2023-02-22T02:56:05.390Z,3.97
2023-02-22T02:58:33.708Z,3.90
2023-02-22T03:01:04.440Z,3.30
2023-02-22T03:04:08.335Z,3.50
2023-02-22T03:06:50.553Z,3.90
2023-02-22T03:09:28.427Z,3.30
2023-02-22T03:12:03.842Z,3.60
2023-02-22T03:14:39.820Z,4.07
2023-02-22T03:17:16.222Z,3.93
2023-02-22T03:19:47.292Z,13.33
2023-02-22T03:22:20.012Z,3.63
2023-02-22T03:24:53.041Z,4.17
2023-02-22T03:27:26.268Z,5.20
2023-02-22T03:29:56.443Z,4.37
2023-02-22T03:32:28.659Z,3.77
2023-02-22T03:35:00.682Z,4.13
2023-02-22T03:37:31.649Z,3.77
2023-02-22T03:40:01.861Z,3.37
2023-02-22T03:42:32.484Z,3.73
2023-02-22T03:45:05.110Z,3.10
2023-02-22T03:47:37.755Z,3.20
2023-02-22T03:50:10.936Z,2.67
2023-02-22T03:52:39.096Z,4.57
2023-02-22T03:55:11.223Z,4.63
2023-02-22T03:57:41.499Z,4.20
2023-02-22T04:00:11.774Z,3.30
2023-02-22T04:02:40.189Z,3.00
2023-02-22T04:05:09.898Z,4.47
2023-02-22T04:07:37.808Z,3.00
2023-02-22T04:10:08.605Z,3.83
2023-02-22T04:12:36.965Z,3.50
2023-02-22T04:15:06.247Z,3.67
2023-02-22T04:17:34.183Z,3.70
2023-02-22T04:20:02.194Z,3.97
2023-02-22T04:22:31.477Z,3.90
2023-02-22T04:24:59.478Z,3.53
2023-02-22T04:27:27.444Z,3.90
2023-02-22T04:29:55.607Z,3.37
2023-02-22T04:32:23.613Z,3.30
2023-02-22T04:34:51.602Z,4.17
2023-02-22T04:37:19.516Z,3.37
2023-02-22T04:39:48.831Z,3.10
2023-02-22T04:42:16.848Z,3.13
2023-02-22T04:44:44.779Z,3.50
2023-02-22T04:47:12.759Z,3.10
2023-02-22T04:49:40.690Z,4.07
2023-02-22T04:52:08.627Z,6.17
2023-02-22T04:54:36.581Z,6.03
2023-02-22T04:57:05.878Z,7.60
2023-02-22T04:59:34.059Z,5.20
2023-02-22T05:02:02.133Z,3.77
2023-02-22T05:04:30.579Z,3.40
2023-02-22T05:06:58.546Z,2.90
2023-02-22T05:09:26.479Z,2.93
2023-02-22T05:11:56.879Z,3.27
2023-02-22T05:14:26.875Z,2.67
2023-02-22T05:16:56.044Z,4.43
2023-02-22T05:19:23.985Z,3.83
2023-02-22T05:21:52.121Z,3.93
2023-02-22T05:24:20.073Z,4.10
2023-02-22T05:26:48.036Z,2.90
2023-02-22T05:29:15.964Z,3.80
2023-02-22T05:31:45.428Z,4.37
2023-02-22T05:34:14.394Z,4.33
2023-02-22T05:36:42.516Z,4.50
2023-02-22T05:39:10.446Z,4.90
2023-02-22T05:41:38.408Z,4.53
2023-02-22T05:44:06.455Z,3.60
2023-02-22T05:46:34.470Z,3.37
2023-02-22T05:49:03.846Z,3.93
2023-02-22T05:51:32.021Z,4.30
2023-02-22T05:53:59.973Z,6.10
2023-02-22T05:56:30.224Z,8.10
2023-02-22T05:58:58.489Z,6.80
2023-02-22T06:01:27.473Z,8.43
2023-02-22T06:03:55.765Z,7.87
2023-02-22T06:06:25.168Z,8.63
2023-02-22T06:08:53.258Z,5.60
2023-02-22T06:11:21.241Z,4.93
2023-02-22T06:13:52.631Z,4.63
2023-02-22T06:16:21.200Z,7.50
2023-02-22T06:18:49.637Z,6.73
2023-02-22T06:21:20.140Z,8.90
2023-02-22T06:23:52.112Z,8.67
2023-02-22T06:26:20.854Z,8.60
2023-02-22T06:28:48.940Z,8.80
2023-02-22T06:31:17.114Z,7.60
2023-02-22T06:33:45.315Z,8.03
2023-02-22T06:36:13.635Z,8.40
2023-02-22T06:38:41.620Z,6.67
2023-02-22T06:41:11.439Z,6.70
2023-02-22T06:43:39.427Z,6.80
2023-02-22T06:46:11.304Z,6.40
2023-02-22T06:48:40.240Z,6.50
2023-02-22T06:51:09.517Z,5.90
2023-02-22T06:53:38.052Z,12.53
2023-02-22T06:56:07.006Z,11.87
2023-02-22T06:58:36.327Z,6.43
2023-02-22T07:01:04.431Z,6.03
2023-02-22T07:03:32.533Z,5.70
2023-02-22T07:06:00.519Z,4.30
2023-02-22T07:08:28.463Z,5.90
2023-02-22T07:10:56.823Z,8.77
2023-02-22T07:13:24.939Z,7.70
2023-02-22T07:15:54.399Z,8.07
2023-02-22T07:18:22.467Z,7.80
2023-02-22T07:20:50.455Z,7.03
2023-02-22T07:23:18.892Z,6.03
2023-02-22T07:25:46.847Z,6.23
2023-02-22T07:28:14.788Z,6.90
2023-02-22T07:30:43.786Z,6.00
2023-02-22T07:33:14.148Z,5.10
2023-02-22T07:35:46.528Z,4.83
2023-02-22T07:38:14.969Z,4.13
2023-02-22T07:40:43.178Z,2.90
2023-02-22T07:43:16.782Z,4.17
2023-02-22T07:45:45.181Z,3.47
2023-02-22T07:48:17.114Z,3.53
2023-02-22T07:50:46.199Z,3.10
2023-02-22T07:53:18.094Z,3.57
2023-02-22T07:55:46.426Z,4.33
2023-02-22T07:58:16.066Z,4.60
2023-02-22T08:00:45.088Z,4.63
2023-02-22T08:03:15.468Z,3.83
2023-02-22T08:05:46.156Z,10.43
2023-02-22T08:08:14.672Z,3.43
2023-02-22T08:10:43.367Z,7.50
2023-02-22T08:13:11.789Z,5.07
2023-02-22T08:15:41.198Z,4.87
2023-02-22T08:18:11.284Z,4.73
2023-02-22T08:20:42.837Z,3.97
2023-02-22T08:23:11.827Z,2.90
2023-02-22T08:25:39.891Z,15.53
2023-02-22T08:28:09.621Z,9.10
2023-02-22T08:30:40.423Z,3.30
2023-02-22T08:33:08.791Z,2.87
2023-02-22T08:35:36.866Z,11.20
2023-02-22T08:38:07.699Z,11.50
2023-02-22T08:40:37.642Z,4.93
2023-02-22T08:43:06.607Z,4.00
2023-02-22T08:45:34.581Z,2.20
2023-02-22T08:48:02.557Z,2.70
2023-02-22T08:50:33.550Z,2.10
2023-02-22T08:53:02.738Z,5.47
2023-02-22T08:55:34.440Z,2.30
2023-02-22T08:58:03.159Z,4.97
2023-02-22T09:00:33.266Z,6.73
2023-02-22T09:03:02.213Z,3.37
2023-02-22T09:05:31.433Z,2.23
2023-02-22T09:07:59.828Z,3.30
2023-02-22T09:10:30.213Z,2.77
2023-02-22T09:13:01.450Z,2.53
2023-02-22T09:15:29.749Z,2.37
2023-02-22T09:17:57.787Z,2.00
2023-02-22T09:20:26.450Z,2.87
2023-02-22T09:22:55.200Z,6.00
2023-02-22T09:25:23.524Z,13.10
2023-02-22T09:27:52.509Z,2.83
2023-02-22T09:30:25.622Z,3.87
2023-02-22T09:32:54.888Z,18.73
2023-02-22T09:35:27.254Z,2.80
2023-02-22T09:37:56.728Z,3.20
2023-02-22T09:40:29.898Z,3.00
2023-02-22T09:43:07.274Z,2.53
2023-02-22T09:45:45.025Z,2.30
2023-02-22T09:48:21.601Z,2.00
2023-02-22T09:50:52.956Z,3.33
2023-02-22T09:53:29.850Z,3.03
2023-02-22T09:56:00.986Z,2.20
2023-02-22T09:58:33.785Z,3.17
2023-02-22T10:01:14.754Z,1.80
2023-02-22T10:03:51.260Z,2.33
2023-02-22T10:06:22.788Z,2.23
2023-02-22T10:08:56.388Z,2.57
2023-02-22T10:11:44.187Z,2.67
2023-02-22T10:14:37.232Z,3.13
2023-02-22T10:17:14.288Z,2.77
2023-02-22T10:19:49.952Z,2.77
2023-02-22T10:22:26.615Z,2.47
2023-02-22T10:24:59.773Z,2.50
2023-02-22T10:27:34.195Z,4.47
2023-02-22T10:30:22.173Z,3.00
2023-02-22T10:32:57.976Z,2.47
2023-02-22T10:35:28.300Z,3.77
2023-02-22T10:37:59.809Z,3.13
2023-02-22T10:40:33.099Z,2.37
2023-02-22T10:43:05.395Z,1.60
2023-02-22T10:45:37.101Z,2.57
2023-02-22T10:48:11.668Z,2.17
2023-02-22T10:50:42.429Z,1.70
2023-02-22T10:53:11.346Z,1.80
2023-02-22T10:56:16.224Z,1.60
2023-02-22T10:58:47.788Z,2.00
2023-02-22T11:01:21.083Z,1.70
2023-02-22T11:04:02.943Z,2.17
2023-02-22T11:06:31.957Z,1.77
2023-02-22T11:09:12.489Z,2.90
2023-02-22T11:11:42.681Z,1.97
2023-02-22T11:14:11.961Z,2.07
2023-02-22T11:16:44.134Z,2.87
2023-02-22T11:19:21.087Z,3.40
2023-02-22T11:21:51.497Z,2.00
2023-02-22T11:24:20.756Z,2.00
2023-02-22T11:26:51.910Z,1.97
2023-02-22T11:29:22.393Z,1.33
2023-02-22T11:31:51.006Z,1.50
2023-02-22T11:34:33.465Z,1.40
2023-02-22T11:37:17.333Z,4.60
2023-02-22T11:39:45.355Z,2.00
2023-02-22T11:42:23.554Z,1.87
2023-02-22T11:45:09.512Z,1.87
2023-02-22T11:47:37.720Z,1.53
2023-02-22T11:50:12.605Z,2.17
2023-02-22T11:52:44.747Z,1.73
2023-02-22T11:55:32.730Z,1.70
2023-02-22T11:58:09.446Z,1.67
2023-02-22T12:00:46.648Z,1.30
2023-02-22T12:03:41.876Z,1.30
2023-02-22T12:06:24.812Z,1.40
2023-02-22T12:09:04.644Z,1.87
2023-02-22T12:11:38.782Z,1.50
2023-02-22T12:14:15.427Z,1.43
2023-02-22T12:17:00.612Z,1.97
2023-02-22T12:19:32.419Z,2.23
2023-02-22T12:22:05.059Z,1.77
2023-02-22T12:24:36.133Z,1.30
2023-02-22T12:27:06.833Z,1.80
2023-02-22T12:29:38.956Z,1.80
2023-02-22T12:32:08.974Z,1.50
2023-02-22T12:34:41.495Z,1.53
2023-02-22T12:37:17.829Z,1.83
2023-02-22T12:39:55.120Z,1.80
2023-02-22T12:42:29.314Z,3.40
2023-02-22T12:45:00.684Z,2.93
2023-02-22T12:47:34.784Z,2.30
2023-02-22T12:50:07.000Z,5.50
2023-02-22T12:52:43.579Z,2.10
2023-02-22T12:55:17.023Z,3.50
2023-02-22T12:57:49.348Z,1.50
2023-02-22T13:00:23.244Z,2.03
2023-02-22T13:03:01.871Z,1.60
2023-02-22T13:05:32.120Z,2.40
2023-02-22T13:08:24.560Z,2.80
2023-02-22T13:11:00.365Z,2.43
2023-02-22T13:13:36.621Z,2.50
2023-02-22T13:16:14.657Z,2.50
2023-02-22T13:18:48.052Z,2.70
2023-02-22T13:21:18.662Z,1.93
2023-02-22T13:23:52.315Z,2.50
2023-02-22T13:26:23.769Z,3.70
2023-02-22T13:28:57.578Z,2.73
2023-02-22T13:31:39.259Z,2.90
2023-02-22T13:34:19.496Z,2.37
2023-02-22T13:37:06.018Z,2.67
2023-02-22T13:39:54.661Z,2.60
2023-02-22T13:42:54.034Z,2.47
2023-02-22T13:45:41.624Z,2.80
2023-02-22T13:48:18.390Z,2.70
2023-02-22T13:50:57.934Z,2.20
2023-02-22T13:53:28.137Z,2.70
2023-02-22T13:56:00.022Z,2.60
2023-02-22T13:58:28.187Z,2.50
2023-02-22T14:00:57.502Z,3.10
2023-02-22T14:03:40.712Z,2.57
2023-02-22T14:06:39.116Z,2.20
2023-02-22T14:09:09.727Z,2.40
2023-02-22T14:11:48.446Z,3.00
2023-02-22T14:14:18.388Z,3.30
2023-02-22T14:16:47.008Z,2.10
2023-02-22T14:19:17.513Z,2.73
2023-02-22T14:21:58.267Z,2.40
2023-02-22T14:24:26.224Z,2.13
2023-02-22T14:26:59.547Z,1.93
2023-02-22T14:29:27.788Z,2.40
2023-02-22T14:32:07.517Z,2.60
2023-02-22T14:34:44.728Z,2.40
2023-02-22T14:37:15.576Z,2.57
2023-02-22T14:39:46.052Z,2.90
2023-02-22T14:42:18.918Z,2.33
2023-02-22T14:44:54.161Z,2.57
2023-02-22T14:47:28.329Z,2.30
2023-02-22T14:50:01.989Z,2.23
2023-02-22T14:52:31.667Z,2.40
2023-02-22T14:55:06.057Z,2.80
2023-02-22T14:57:46.149Z,2.07
2023-02-22T15:00:20.766Z,1.97
2023-02-22T15:02:49.886Z,2.30
2023-02-22T15:05:20.881Z,2.00
2023-02-22T15:07:53.648Z,2.10
2023-02-22T15:10:25.418Z,2.47
2023-02-22T15:13:08.955Z,2.23
2023-02-22T15:15:39.025Z,2.70
2023-02-22T15:18:15.692Z,2.67
2023-02-22T15:20:43.683Z,2.27
2023-02-22T15:23:12.189Z,2.80
2023-02-22T15:25:42.137Z,2.00
2023-02-22T15:28:15.562Z,2.40
2023-02-22T15:30:43.571Z,2.37
2023-02-22T15:33:13.773Z,2.13
2023-02-22T15:35:41.828Z,2.10
2023-02-22T15:38:21.513Z,2.77
2023-02-22T15:41:00.360Z,1.80
2023-02-22T15:43:30.060Z,2.67
2023-02-22T15:45:58.935Z,2.40
2023-02-22T15:48:27.352Z,2.80
2023-02-22T15:51:09.222Z,2.70
2023-02-22T15:53:43.408Z,2.20
2023-02-22T15:56:17.116Z,2.50
2023-02-22T15:58:48.363Z,3.80
2023-02-22T16:01:19.082Z,2.53
2023-02-22T16:03:49.280Z,3.07
2023-02-22T16:06:29.666Z,2.70
2023-02-22T16:08:59.471Z,2.87
2023-02-22T16:11:31.066Z,3.17
2023-02-22T16:14:02.006Z,3.00
2023-02-22T16:16:32.332Z,3.00
2023-02-22T16:19:32.859Z,3.13
2023-02-22T16:22:13.330Z,3.00
2023-02-22T16:24:41.506Z,5.60
2023-02-22T16:27:18.690Z,5.77
2023-02-22T16:30:07.800Z,3.60
2023-02-22T16:32:38.077Z,4.00
2023-02-22T16:35:06.530Z,4.13
2023-02-22T16:37:34.497Z,4.47
2023-02-22T16:40:02.556Z,3.43
2023-02-22T16:42:30.458Z,4.30
2023-02-22T16:44:59.752Z,3.20
2023-02-22T16:47:27.642Z,4.67
2023-02-22T16:49:57.187Z,4.20
2023-02-22T16:52:25.383Z,4.33
2023-02-22T16:54:53.395Z,4.93
2023-02-22T16:57:23.368Z,5.70
2023-02-22T16:59:52.807Z,6.87
2023-02-22T17:02:22.504Z,5.13
2023-02-22T17:04:50.524Z,5.17
2023-02-22T17:07:20.561Z,4.70
2023-02-22T17:09:48.492Z,4.33
2023-02-22T17:12:16.447Z,4.23
2023-02-22T17:14:47.129Z,3.63
2023-02-22T17:17:15.809Z,4.53
2023-02-22T17:19:49.252Z,4.90
2023-02-22T17:22:21.848Z,5.10
2023-02-22T17:24:50.225Z,5.50
2023-02-22T17:27:18.164Z,5.40
2023-02-22T17:29:47.899Z,5.90
2023-02-22T17:32:15.899Z,5.80
2023-02-22T17:34:45.205Z,6.60
2023-02-22T17:37:13.155Z,4.93
2023-02-22T17:39:41.067Z,7.40
2023-02-22T17:42:08.948Z,6.80
2023-02-22T17:44:36.982Z,7.93
2023-02-22T17:47:04.964Z,5.33
2023-02-22T17:49:32.966Z,5.07
2023-02-22T17:52:06.176Z,4.70
2023-02-22T17:54:34.619Z,5.37
2023-02-22T17:57:02.512Z,5.80
2023-02-22T17:59:30.777Z,6.13
2023-02-22T18:01:58.733Z,4.90
2023-02-22T18:04:26.741Z,5.53
2023-02-22T18:06:54.658Z,4.73
2023-02-22T18:09:24.261Z,4.80
2023-02-22T18:11:52.315Z,4.83
2023-02-22T18:14:20.195Z,5.37
2023-02-22T18:16:48.447Z,5.13
2023-02-22T18:19:20.452Z,5.13
2023-02-22T18:21:49.977Z,5.23
2023-02-22T18:24:18.519Z,4.37
2023-02-22T18:26:47.871Z,5.77
2023-02-22T18:29:15.775Z,4.60
2023-02-22T18:31:45.440Z,5.40
2023-02-22T18:34:13.776Z,5.20
2023-02-22T18:36:41.688Z,7.67
2023-02-22T18:39:11.828Z,10.50
2023-02-22T18:41:39.844Z,7.23
2023-02-22T18:44:11.041Z,5.80
2023-02-22T18:46:39.067Z,13.43
2023-02-22T18:49:07.086Z,5.70
2023-02-22T18:51:35.834Z,5.30
2023-02-22T18:54:03.751Z,6.23
2023-02-22T18:56:31.816Z,5.73
2023-02-22T18:59:00.934Z,5.30
2023-02-22T19:01:30.979Z,6.40
2023-02-22T19:03:59.358Z,5.40
2023-02-22T19:06:27.320Z,5.17
2023-02-22T19:08:55.248Z,5.10
2023-02-22T19:11:24.867Z,5.40
2023-02-22T19:13:54.699Z,6.20
2023-02-22T19:16:24.078Z,5.10
2023-02-22T19:18:57.236Z,5.20
2023-02-22T19:21:26.062Z,5.70
2023-02-22T19:23:54.050Z,5.80
2023-02-22T19:26:24.412Z,5.43
2023-02-22T19:28:53.828Z,6.67
2023-02-22T19:31:26.235Z,6.93
2023-02-22T19:33:55.704Z,6.20
2023-02-22T19:36:24.240Z,6.33
2023-02-22T19:38:52.482Z,6.73
2023-02-22T19:41:22.851Z,6.47
2023-02-22T19:43:52.185Z,6.80
2023-02-22T19:46:21.450Z,6.20
2023-02-22T19:48:49.911Z,7.37
2023-02-22T19:51:24.503Z,5.80
2023-02-22T19:53:52.807Z,7.50
2023-02-22T19:56:26.990Z,7.00
2023-02-22T19:58:56.695Z,7.20
2023-02-22T20:01:26.272Z,6.10
2023-02-22T20:03:55.741Z,5.07
2023-02-22T20:06:28.254Z,7.03
2023-02-22T20:08:57.514Z,7.70
2023-02-22T20:11:26.024Z,8.73
2023-02-22T20:13:55.544Z,7.60
2023-02-22T20:16:23.948Z,13.40
2023-02-22T20:18:52.447Z,8.03
2023-02-22T20:21:22.884Z,10.60
2023-02-22T20:23:56.951Z,7.00
2023-02-22T20:26:26.502Z,7.30
2023-02-22T20:28:54.521Z,9.73
2023-02-22T20:31:22.917Z,8.87
2023-02-22T20:33:54.523Z,10.33
2023-02-22T20:36:23.219Z,8.90
2023-02-22T20:38:54.974Z,9.50
2023-02-22T20:41:25.932Z,9.40
2023-02-22T20:43:55.231Z,9.13
2023-02-22T20:46:24.762Z,8.73
2023-02-22T20:48:55.515Z,10.70
2023-02-22T20:51:23.491Z,9.50
2023-02-22T20:53:51.547Z,9.70
2023-02-22T20:56:22.954Z,10.10
2023-02-22T20:58:51.353Z,10.60
2023-02-22T21:01:22.504Z,10.20
2023-02-22T21:03:51.388Z,10.60
2023-02-22T21:06:21.455Z,9.20
2023-02-22T21:08:53.584Z,10.03
2023-02-22T21:11:24.543Z,9.87
2023-02-22T21:13:52.645Z,8.90
2023-02-22T21:16:22.394Z,9.60
2023-02-22T21:18:51.543Z,8.67
2023-02-22T21:21:20.022Z,7.70
2023-02-22T21:23:50.941Z,7.90
2023-02-22T21:26:23.449Z,11.10
2023-02-22T21:28:53.350Z,8.60
2023-02-22T21:31:23.612Z,8.30
2023-02-22T21:33:53.036Z,8.13
2023-02-22T21:36:25.387Z,8.40
2023-02-22T21:38:55.476Z,9.77
2023-02-22T21:41:27.501Z,9.67
2023-02-22T21:43:58.010Z,9.90
2023-02-22T21:46:26.787Z,10.07
2023-02-22T21:48:54.768Z,8.93
2023-02-22T21:51:25.406Z,9.80
2023-02-22T21:53:55.528Z,10.50
2023-02-22T21:56:27.555Z,10.50
2023-02-22T21:58:59.775Z,9.20
2023-02-22T22:01:28.519Z,9.63
2023-02-22T22:03:59.831Z,9.73
2023-02-22T22:06:28.949Z,9.23
2023-02-22T22:08:57.687Z,9.40
2023-02-22T22:11:26.084Z,8.77
2023-02-22T22:13:58.873Z,8.20
2023-02-22T22:16:29.737Z,8.40
2023-02-22T22:18:58.076Z,9.00
2023-02-22T22:21:26.451Z,8.47
2023-02-22T22:23:56.216Z,9.07
2023-02-22T22:26:25.857Z,9.37
2023-02-22T22:28:58.988Z,8.33
2023-02-22T22:31:28.257Z,9.20
2023-02-22T22:33:56.983Z,9.00
2023-02-22T22:36:26.613Z,8.90
2023-02-22T22:38:57.251Z,9.43
2023-02-22T22:41:28.128Z,7.70
2023-02-22T22:43:57.559Z,9.10
2023-02-22T22:46:25.843Z,8.87
2023-02-22T22:48:53.833Z,9.50
2023-02-22T22:51:22.566Z,9.90
2023-02-22T22:53:51.941Z,9.33
2023-02-22T22:56:21.028Z,9.10
2023-02-22T22:58:50.295Z,10.50
2023-02-22T23:01:26.775Z,12.63
2023-02-22T23:03:56.096Z,11.93
2023-02-22T23:06:26.012Z,10.97
2023-02-22T23:09:00.078Z,10.90
2023-02-22T23:11:29.699Z,10.57
2023-02-22T23:13:57.755Z,9.90
2023-02-22T23:16:27.033Z,10.70
2023-02-22T23:18:54.974Z,11.17
2023-02-22T23:21:24.439Z,10.57
2023-02-22T23:23:55.625Z,10.30
2023-02-22T23:26:26.651Z,11.20
2023-02-22T23:28:55.878Z,11.10
2023-02-22T23:31:24.480Z,13.13
2023-02-22T23:33:55.717Z,13.80
2023-02-22T23:36:23.749Z,12.30
2023-02-22T23:38:51.717Z,12.70
2023-02-22T23:41:19.992Z,11.87
2023-02-22T23:43:48.478Z,13.20
2023-02-22T23:46:19.393Z,12.73
2023-02-22T23:48:51.335Z,13.67
2023-02-22T23:51:25.612Z,13.37
2023-02-22T23:53:55.700Z,13.23
2023-02-22T23:56:26.839Z,12.43
2023-02-22T23:58:57.343Z,11.87
